Millville, New Jersey
Current Conditions -  °F | °C
As of 4:54 PM on Friday 19 Dec 2014 (Local Time) from KMIV Reporting Station
Clear Clear  
Wind Chill: 32°   Ceiling: Unl
Heat Index: 37°   Visibility: 10mi
Dew Point: 23°   Wind: 7mph
Humidity: 57%   Direction: 300°WNW
Pressure: 30.11"   Gusts: NA
Location:  39.4°N, 75.03°W
Report Text: KMIV 192154Z AUTO 30006KT 10SM CLR 03/M05 A3011 RMK AO2 SLP194 T00281050
Loading
Personal Weather Stations






























Interactive Weather Map New forecast layout! Learn more

10-Day Weather Forecast

Advertisements
Track Severe Weather on mobile